Latest Weather Observations for Casey*

IDT60801

Issued at 6:31 pm EDT Tuesday 21 February 2017 (issued every 30 minutes, with the page automatically refreshed every 10 minutes)

About weather observations | Map of weather stations | Latest weather observations for ANT | Other Formats
Station Details ID: 300017 Name: CASEY Lat: -66.28 Lon: 110.52 Height: 40.0 m
Data from the previous 72 hours. | See also: Recent months at Casey*
Date/Time
EDT
Temp
°C
App
Temp
°C
Dew
Point
°C
Rel
Hum
%
Delta-T
°C
Wind Press
QNH
hPa
Press
MSL
hPa
Rain since
9am
mm
Dir  Spd
km/h
Gust
km/h
Spd
kts
Gust
kts
21/06:00pm 2.4 -8.2 -3.1 67 - ENE 43 54 23 29 996.3 - -
21/05:30pm 2.4 -9.5 -3.1 67 - ENE 50 59 27 32 995.9 - -
21/05:00pm 2.2 -9.3 -3.1 68 - ENE 48 65 26 35 995.4 995.6 -
21/04:30pm 2.2 -10.4 -2.9 69 - ENE 54 70 29 38 995.5 - -
21/04:00pm 2.1 -11.1 -3.0 69 - NE 57 69 31 37 995.0 - -
21/03:30pm 2.1 -12.2 -2.6 71 - NE 63 76 34 41 994.6 - -
21/03:07pm 2.1 -12.2 -2.6 71 - NE 63 82 34 44 994.1 - -
21/03:00pm 2.0 -11.9 -2.7 71 - NE 61 76 33 41 994.2 - -
21/02:30pm 1.9 -11.2 -2.4 73 - ENE 57 74 31 40 994.5 - -
21/02:00pm 2.0 -13.1 -2.5 72 - ENE 67 80 36 43 993.4 993.6 -
21/01:42pm 1.7 -14.3 -2.6 73 - ENE 72 91 39 49 992.6 - -
21/01:30pm 1.8 -14.6 -2.7 72 - NE 74 89 40 48 992.6 - -
21/01:07pm 1.6 -14.8 -2.7 73 - NE 74 95 40 51 992.3 - -
21/01:00pm 1.7 -14.3 -2.6 73 - NE 72 87 39 47 992.5 - -
21/12:30pm 1.5 -14.5 -2.6 74 - ENE 72 95 39 51 992.4 - -
21/12:00pm 1.4 -15.8 -2.7 74 - ENE 78 96 42 52 992.0 - -
21/11:31am 1.3 -16.6 -2.6 75 - ENE 82 100 44 54 992.0 - -
21/11:30am 1.3 -16.8 -2.5 76 - ENE 83 100 45 54 992.1 - -
21/11:10am 1.2 -17.7 -2.5 76 - ENE 87 106 47 57 991.7 - -
21/11:00am 1.1 -17.4 -2.6 76 - ENE 85 102 46 55 991.6 991.8 -
21/10:33am 1.0 -17.9 -2.7 76 - ENE 87 106 47 57 991.4 - -
21/10:30am 1.0 -18.6 -2.7 76 - ENE 91 106 49 57 991.3 - -
21/10:00am 0.8 -19.6 -2.9 76 - ENE 95 113 51 61 990.1 - -
21/09:30am 0.7 -18.3 -3.4 74 - ENE 87 107 47 58 989.4 - -
21/09:01am 0.7 -18.3 -3.8 72 - ENE 87 106 47 57 990.3 - -
21/09:00am 0.7 -18.3 -3.8 72 - ENE 87 102 47 55 990.1 - -
21/08:47am 0.6 -15.6 -3.9 72 - ENE 72 91 39 49 990.6 - -
21/08:30am 0.8 -14.8 -3.8 71 - E 69 83 37 45 991.6 - -
21/08:24am 0.8 -14.0 -4.0 70 - E 65 76 35 41 991.7 - -
21/08:06am 0.7 -17.5 -3.6 73 - ENE 83 102 45 55 991.2 - -
21/08:00am 1.1 -17.5 -3.9 69 - ENE 85 102 46 55 990.8 991.0 -
21/07:47am 0.7 -18.3 -3.4 74 - ENE 87 106 47 57 990.0 - -
21/07:30am 0.7 -17.3 -3.4 74 - ENE 82 95 44 51 990.0 - -
21/07:00am 1.0 -17.0 -3.1 74 - ENE 82 104 44 56 989.5 - -
21/06:30am 0.8 -16.1 -3.5 73 - ENE 76 96 41 52 990.5 - -
21/06:16am 1.0 -16.3 -3.5 72 - ENE 78 96 42 52 990.2 - -
21/06:00am 0.9 -16.0 -3.6 72 - ENE 76 91 41 49 990.4 - -
21/05:52am 0.7 -14.5 -3.4 74 - ENE 67 85 36 46 990.4 - -
21/05:30am 0.6 -15.2 -3.9 72 - ENE 70 83 38 45 991.1 - -
21/05:27am 0.6 -15.0 -3.7 73 - ENE 69 82 37 44 991.3 - -
21/05:20am 0.5 -11.1 -3.8 73 - ENE 48 69 26 37 992.0 - -
21/05:00am 0.6 -10.2 -3.7 73 - ENE 44 57 24 31 992.6 992.8 -
21/04:30am 0.5 -11.8 -3.6 74 - NE 52 67 28 36 992.7 - -
21/04:24am 0.4 -10.2 -3.3 76 - NE 43 61 23 33 992.8 - -
21/04:00am 0.3 -9.2 -3.4 76 - NE 37 46 20 25 993.5 - -
21/03:30am -0.2 -9.0 -4.4 73 - NE 33 39 18 21 993.8 - -
21/03:00am 0.3 -10.4 -4.5 70 - ENE 43 50 23 27 993.8 - -
21/02:30am 0.4 -10.3 -4.2 71 - ENE 43 50 23 27 994.1 - -
21/02:00am 0.5 -10.3 -3.9 72 - ENE 44 54 24 29 994.3 994.5 -
21/01:30am 0.8 -10.0 -3.8 71 - ENE 44 54 24 29 994.2 - -
21/01:12am 0.8 -7.9 -3.3 74 - ENE 33 52 18 28 994.3 - -
21/01:00am 0.6 -8.8 -3.1 76 - ENE 37 43 20 23 994.6 - -
21/12:30am 0.4 -9.0 -2.5 81 - NE 37 46 20 25 994.7 - -
21/12:00am 0.4 -8.1 -2.0 84 - NE 33 41 18 22 994.8 - -
 
Date/Time
EDT
Temp
°C
App
Temp
°C
Dew
Point
°C
Rel
Hum
%
Delta-T
°C
Wind Press
QNH
hPa
Press
MSL
hPa
Rain since
9am
mm
Dir  Spd
km/h
Gust
km/h
Spd
kts
Gust
kts
20/11:48pm -0.2 -9.8 -1.6 90 - NE 39 41 21 22 994.8 - -
20/11:30pm -0.1 -6.1 -1.4 91 - NNE 20 28 11 15 995.0 - -
20/11:24pm -0.1 -5.5 -1.4 91 - NNE 17 24 9 13 995.0 - -
20/11:00pm 0.5 -8.8 -2.0 83 - NE 37 44 20 24 994.8 995.0 -
20/10:30pm 0.1 -6.0 -2.0 86 - NNE 20 28 11 15 995.0 - -
20/10:00pm 0.2 -5.9 -2.0 85 - NNE 20 26 11 14 994.8 - -
20/09:30pm 0.0 -6.4 -1.9 87 - NNE 22 30 12 16 994.6 - -
20/09:00pm 0.1 -6.7 -1.8 87 - NNE 24 30 13 16 994.5 - -
20/08:30pm 0.1 -7.8 -1.8 87 - NNE 30 35 16 19 994.3 - -
20/08:00pm 0.1 -7.9 -2.0 86 - NNE 30 37 16 20 994.1 994.3 -
20/07:30pm -0.1 -6.9 -2.0 87 - N 24 30 13 16 994.0 - -
20/07:00pm -0.3 -6.8 -2.2 87 - N 22 28 12 15 993.8 - -
20/06:30pm -0.3 -7.2 -2.5 85 - NNE 24 30 13 16 993.5 - -
20/06:00pm -0.3 -7.6 -2.5 85 - NNE 26 32 14 17 993.4 - -
20/05:30pm -0.5 -8.1 -2.4 87 - NNE 28 33 15 18 993.1 - -
20/05:00pm -0.8 -8.8 -2.5 88 - NNE 30 35 16 19 992.9 993.1 -
20/04:30pm -0.8 -8.8 -2.2 90 - NNE 30 35 16 19 992.5 - -
20/04:00pm -0.5 -8.1 -2.2 88 - NNE 28 33 15 18 992.0 - -
20/03:30pm -0.6 -7.1 -2.3 88 - N 22 28 12 15 992.0 - -
20/03:00pm -0.9 -6.2 -3.4 83 - N 15 22 8 12 991.6 - -
20/02:30pm -1.1 -6.5 -4.3 79 - N 15 20 8 11 991.3 - -
20/02:00pm -1.2 -7.7 -5.6 72 - N 20 30 11 16 990.7 990.9 -
20/01:30pm -1.2 -7.7 -6.1 69 - N 20 30 11 16 990.3 - -
20/01:00pm -1.2 -7.4 -3.4 85 - N 20 28 11 15 989.7 - -
20/12:30pm -0.9 -8.5 -2.3 90 - N 28 35 15 19 989.2 - -
20/12:00pm -1.1 -8.7 -2.4 91 - N 28 35 15 19 988.7 - -
20/11:30am -1.3 -7.4 -2.1 94 - N 20 26 11 14 988.3 - -
20/11:00am -1.4 -8.6 -2.2 94 - N 26 32 14 17 987.9 988.1 -
20/10:30am -1.7 -9.0 -2.5 94 - NNE 26 33 14 18 987.6 - -
20/10:00am -2.0 -9.3 -3.0 93 - NNE 26 30 14 16 987.1 - -
20/09:30am -2.3 -8.5 -3.3 93 - NNE 20 26 11 14 986.7 - -
20/09:00am -2.2 -8.5 -3.6 90 - NNE 20 24 11 13 986.3 - -
20/08:30am -2.5 -9.6 -4.2 88 - NNE 24 28 13 15 986.0 - -
20/08:00am -3.0 -9.2 -4.7 88 - NNE 19 26 10 14 985.6 985.8 -
20/07:30am -3.3 -9.1 -4.3 93 - NNE 17 20 9 11 985.4 - -
20/07:00am -3.4 -9.5 -4.2 94 - NNE 19 22 10 12 985.0 - -
20/06:30am -3.3 -10.0 -4.1 94 - NNE 22 26 12 14 984.7 - -
20/06:00am -2.8 -8.6 -4.2 90 - N 17 24 9 13 984.4 - -
20/05:30am -2.7 -8.8 -4.1 90 - N 19 22 10 12 984.1 - -
20/05:00am -2.8 -8.5 -4.1 91 - NNE 17 22 9 12 983.9 984.1 -
20/04:30am -2.7 -7.7 -4.0 91 - N 13 17 7 9 983.9 - -
20/04:00am -2.6 -6.8 -3.9 91 - N 9 13 5 7 983.6 - -
20/03:30am -2.3 -6.0 -4.2 87 - N 6 11 3 6 983.8 - -
20/03:00am -2.3 -6.2 -4.2 87 - N 7 9 4 5 983.8 - -
20/02:30am -2.0 -5.6 -3.7 88 - WNW 6 7 3 4 983.9 - -
20/02:00am -1.7 -5.3 -3.4 88 - W 6 7 3 4 984.1 984.3 -
20/01:30am -1.6 -5.1 -3.2 89 - WNW 6 11 3 6 984.2 - -
20/01:00am -1.6 -5.1 -3.0 90 - WNW 6 9 3 5 984.2 - -
20/12:30am -1.1 -5.2 -2.7 89 - W 9 11 5 6 984.4 - -
20/12:00am -0.6 -4.6 -2.5 87 - WSW 9 11 5 6 984.5 - -
 
Date/Time
EDT
Temp
°C
App
Temp
°C
Dew
Point
°C
Rel
Hum
%
Delta-T
°C
Wind Press
QNH
hPa
Press
MSL
hPa
Rain since
9am
mm
Dir  Spd
km/h
Gust
km/h
Spd
kts
Gust
kts
19/11:30pm -0.3 -4.7 -2.3 86 - SW 11 13 6 7 984.6 - -
19/11:00pm 0.1 -4.3 -2.1 85 - SW 11 11 6 6 984.7 984.9 -
19/10:30pm 0.8 -3.1 -1.3 86 - S 9 9 5 5 984.8 - -
19/10:00pm 0.5 -3.7 -1.1 89 - S 11 13 6 7 985.0 - -
19/09:30pm 0.5 -3.7 -1.1 89 - S 11 13 6 7 985.0 - -
19/09:00pm 0.9 -3.7 -0.9 88 - S 13 15 7 8 985.2 - -
19/08:30pm 0.9 -4.1 -0.9 88 - S 15 19 8 10 985.2 - -
19/08:00pm 1.6 -3.7 -0.3 87 - SE 17 19 9 10 985.2 985.4 -
19/07:30pm 0.7 -4.6 -0.7 90 - SSE 17 20 9 11 985.2 - -
19/07:00pm 0.4 -5.5 -0.7 92 - SSE 20 24 11 13 985.3 - -
19/06:30pm 0.5 -5.4 -0.6 92 - SSE 20 24 11 13 985.3 - -
19/06:00pm 1.1 -4.6 -0.7 88 - SSE 19 24 10 13 985.4 - -
19/05:30pm 1.2 -3.4 -0.9 86 - SSW 13 19 7 10 985.3 - -
19/05:00pm 1.4 -3.5 -0.5 87 - S 15 17 8 9 985.4 985.6 -
19/04:30pm 1.1 -3.0 -0.4 90 - S 11 13 6 7 985.4 - -
19/04:00pm 1.8 -1.5 -1.3 80 - N 6 9 3 5 985.4 - -
19/03:30pm 1.5 -1.4 -1.2 82 - NNW 4 9 2 5 985.5 - -
19/03:00pm 1.1 -2.8 -1.6 82 - W 9 13 5 7 985.5 - -
19/02:30pm 0.7 -3.6 -1.5 85 - W 11 15 6 8 985.4 - -
19/02:00pm 2.5 -4.0 -2.2 71 - N 22 28 12 15 985.1 985.3 -
19/01:30pm 1.8 -5.8 -2.0 76 - NE 28 32 15 17 985.0 - -
19/01:00pm 1.4 -4.5 -2.0 78 - N 19 24 10 13 985.1 - -
19/12:30pm 1.3 -5.5 -2.1 78 - NE 24 32 13 17 985.2 - -
19/12:00pm 1.1 -6.0 -1.6 82 - NE 26 32 14 17 984.9 - -
19/11:30am 0.8 -8.1 -1.8 83 - NE 35 41 19 22 984.6 - -
19/11:00am 0.9 -6.3 -1.8 82 - NNE 26 37 14 20 984.5 984.7 -
19/10:30am 0.9 -7.4 -1.7 83 - NE 32 41 17 22 984.5 - -
19/10:00am 0.6 -8.2 -1.3 87 - NE 35 41 19 22 984.3 - -
19/09:30am 0.1 -6.6 -1.2 91 - NNE 24 39 13 21 984.4 - -
19/09:00am 0.2 -7.6 -0.6 94 - NE 30 35 16 19 984.2 - -
19/08:30am 0.6 -7.6 -1.3 87 - NE 32 37 17 20 983.9 - -
19/08:00am 0.3 -6.4 -1.0 91 - NNE 24 28 13 15 983.6 983.9 -
19/07:30am 0.1 -5.6 -0.9 93 - NNE 19 28 10 15 983.4 - -
19/07:00am 0.4 -5.5 -0.7 92 - NNE 20 30 11 16 983.3 - -
19/06:30am 0.4 -6.7 -1.2 89 - NE 26 35 14 19 983.1 - -
19/06:00am 0.2 -6.0 -0.6 94 - NNE 22 30 12 16 983.0 - -
19/05:30am 0.1 -5.8 -0.6 95 - NNE 20 28 11 15 982.9 - -
19/05:00am 0.4 -6.2 -0.6 93 - NE 24 35 13 19 982.5 982.8 -
19/04:30am 0.2 -6.4 -0.5 95 - NNE 24 33 13 18 982.3 - -
19/04:00am 0.1 -6.9 -0.5 96 - NNE 26 33 14 18 982.1 - -
19/03:30am -0.1 -7.5 -0.7 96 - NNE 28 33 15 18 981.9 - -
19/03:00am -0.1 -7.1 -0.7 96 - NNE 26 32 14 17 981.5 - -
19/02:30am 0.1 -6.5 -0.6 95 - NNE 24 30 13 16 981.4 - -
19/02:00am 0.2 -7.2 -0.8 93 - NE 28 32 15 17 981.2 981.5 -
19/01:30am 0.3 -7.5 -0.7 93 - NNE 30 39 16 21 980.9 - -
19/01:00am 0.5 -7.3 -0.6 92 - NNE 30 41 16 22 980.6 - -
19/12:30am 0.5 -7.3 -0.9 90 - NNE 30 41 16 22 980.2 - -
19/12:18am 0.7 -7.7 -0.9 89 - NNE 33 52 18 28 980.0 - -
19/12:00am 0.8 -8.3 -0.8 89 - NNE 37 48 20 26 979.7 - -
 
Date/Time
EDT
Temp
°C
App
Temp
°C
Dew
Point
°C
Rel
Hum
%
Delta-T
°C
Wind Press
QNH
hPa
Press
MSL
hPa
Rain since
9am
mm
Dir  Spd
km/h
Gust
km/h
Spd
kts
Gust
kts
18/11:30pm 0.5 -10.0 -0.9 90 - NE 44 54 24 29 979.3 - -
18/11:00pm 0.6 -9.7 -1.0 89 - NE 43 52 23 28 978.7 979.0 -
18/10:30pm 0.5 -8.7 -1.1 89 - NE 37 48 20 26 978.2 - -
18/10:00pm 0.6 -9.7 -1.2 88 - NE 43 54 23 29 977.7 - -

Other Formats:

Comma delimited format used in spreadsheet applications
http://www.bom.gov.au/fwo/IDT60803/IDT60803.89611.axf

JavaScript Object Notation format (JSON) in row-major order
http://www.bom.gov.au/fwo/IDT60803/IDT60803.89611.json